createdAt,value
2019-02-07T00:02:23.435Z,95.00
2019-02-07T00:04:56.150Z,94.40
2019-02-07T00:07:27.920Z,94.90
2019-02-07T00:09:59.692Z,95.00
2019-02-07T00:12:31.264Z,95.40
2019-02-07T00:15:03.444Z,95.30
2019-02-07T00:17:35.253Z,95.50
2019-02-07T00:20:08.119Z,95.50
2019-02-07T00:22:39.489Z,95.80
2019-02-07T00:25:11.275Z,96.50
2019-02-07T00:27:42.970Z,97.40
2019-02-07T00:30:16.265Z,97.40
2019-02-07T00:32:49.050Z,97.80
2019-02-07T00:35:20.579Z,99.70
2019-02-07T00:37:53.129Z,99.90
2019-02-07T00:40:25.635Z,99.90
2019-02-07T00:42:56.659Z,99.90
2019-02-07T00:45:27.945Z,99.90
2019-02-07T00:47:59.500Z,99.90
2019-02-07T00:50:31.256Z,99.90
2019-02-07T00:53:02.776Z,99.90
2019-02-07T00:55:33.858Z,99.90
2019-02-07T00:58:05.367Z,99.90
2019-02-07T01:00:37.542Z,99.90
2019-02-07T01:03:08.998Z,99.90
2019-02-07T01:05:40.608Z,99.90
2019-02-07T01:08:12.802Z,99.90
2019-02-07T01:10:44.184Z,99.90
2019-02-07T01:13:15.652Z,99.90
2019-02-07T01:15:47.222Z,99.90
2019-02-07T01:18:18.466Z,99.90
2019-02-07T01:20:49.874Z,99.90
2019-02-07T01:23:21.862Z,99.90
2019-02-07T01:25:52.888Z,99.90
2019-02-07T01:28:24.663Z,99.90
2019-02-07T01:30:56.106Z,99.90
2019-02-07T01:33:27.599Z,99.90
2019-02-07T01:35:59.083Z,99.90
2019-02-07T01:38:30.088Z,99.90
2019-02-07T01:41:01.631Z,99.90
2019-02-07T01:43:32.880Z,99.90
2019-02-07T01:46:04.017Z,99.90
2019-02-07T01:48:35.299Z,99.90
2019-02-07T01:51:06.857Z,99.90
2019-02-07T01:53:38.705Z,99.90
2019-02-07T01:56:10.018Z,99.90
2019-02-07T01:58:41.566Z,99.90
2019-02-07T02:01:12.555Z,99.90
2019-02-07T02:03:44.063Z,99.90
2019-02-07T02:06:15.540Z,99.90
2019-02-07T02:08:46.666Z,99.90
2019-02-07T02:11:18.543Z,99.90
2019-02-07T02:13:49.969Z,99.90
2019-02-07T02:16:24.103Z,99.90
2019-02-07T02:18:54.924Z,99.90
2019-02-07T02:21:26.229Z,99.90
2019-02-07T02:23:57.318Z,99.90
2019-02-07T02:26:28.954Z,99.90
2019-02-07T02:29:00.975Z,99.90
2019-02-07T02:31:32.538Z,99.90
2019-02-07T02:34:04.212Z,99.90
2019-02-07T02:36:35.639Z,99.90
2019-02-07T02:39:09.493Z,99.90
2019-02-07T02:41:40.795Z,99.90
2019-02-07T02:44:11.800Z,99.90
2019-02-07T02:46:44.216Z,99.90
2019-02-07T02:49:15.444Z,99.90
2019-02-07T02:51:46.519Z,99.90
2019-02-07T02:54:49.546Z,99.90
2019-02-07T02:57:21.096Z,99.90
2019-02-07T02:59:52.585Z,99.90
2019-02-07T03:02:48.314Z,99.90
2019-02-07T03:05:38.521Z,99.90
2019-02-07T03:08:28.944Z,99.90
2019-02-07T03:11:18.064Z,99.90
2019-02-07T03:14:07.021Z,99.90
2019-02-07T03:17:00.597Z,99.90
2019-02-07T03:19:41.720Z,99.90
2019-02-07T03:22:25.927Z,99.60
2019-02-07T03:25:31.492Z,98.40
2019-02-07T03:28:33.850Z,98.70
2019-02-07T03:31:27.616Z,98.70
2019-02-07T03:34:12.163Z,98.00
2019-02-07T03:37:17.858Z,96.10
2019-02-07T03:40:11.505Z,93.80
2019-02-07T03:42:57.983Z,92.80
2019-02-07T03:46:02.875Z,91.50
2019-02-07T03:48:43.501Z,90.90
2019-02-07T03:51:25.631Z,90.40
2019-02-07T03:54:18.828Z,89.90
2019-02-07T03:56:58.577Z,89.00
2019-02-07T03:59:58.073Z,85.40
2019-02-07T04:02:40.874Z,83.80
2019-02-07T04:05:26.135Z,81.90
2019-02-07T04:08:14.444Z,81.70
2019-02-07T04:11:04.866Z,81.80
2019-02-07T04:13:55.686Z,81.70
2019-02-07T04:16:39.432Z,81.40
2019-02-07T04:19:45.364Z,82.80
2019-02-07T04:22:33.940Z,82.30
2019-02-07T04:25:22.969Z,83.00
2019-02-07T04:28:11.253Z,82.10
2019-02-07T04:30:58.708Z,81.00
2019-02-07T04:33:54.774Z,81.30
2019-02-07T04:36:36.839Z,80.60
2019-02-07T04:39:21.396Z,80.10
2019-02-07T04:42:06.823Z,79.30
2019-02-07T04:44:56.480Z,79.20
2019-02-07T04:47:45.448Z,78.60
2019-02-07T04:50:26.279Z,79.70
2019-02-07T04:53:06.571Z,82.00
2019-02-07T04:55:56.521Z,83.50
2019-02-07T04:58:39.942Z,85.50
2019-02-07T05:01:29.152Z,85.80
2019-02-07T05:04:09.539Z,86.60
2019-02-07T05:06:58.227Z,88.90
2019-02-07T05:10:00.466Z,90.20
2019-02-07T05:12:53.051Z,90.60
2019-02-07T05:15:49.030Z,91.00
2019-02-07T05:18:43.306Z,91.30
2019-02-07T05:21:33.690Z,91.40
2019-02-07T05:24:30.049Z,91.80
2019-02-07T05:27:19.140Z,91.80
2019-02-07T05:30:18.708Z,91.80
2019-02-07T05:33:08.065Z,91.90
2019-02-07T05:35:51.370Z,92.30
2019-02-07T05:38:42.968Z,92.30
2019-02-07T05:41:30.149Z,92.20
2019-02-07T05:44:25.990Z,92.50
2019-02-07T05:47:14.966Z,92.90
2019-02-07T05:49:58.597Z,92.70
2019-02-07T05:52:41.459Z,93.30
2019-02-07T05:55:30.743Z,93.70
2019-02-07T05:58:28.469Z,93.60
2019-02-07T06:01:15.534Z,93.20
2019-02-07T06:03:54.897Z,93.00
2019-02-07T06:06:54.828Z,93.30
2019-02-07T06:09:38.124Z,93.40
2019-02-07T06:12:36.968Z,93.30
2019-02-07T06:15:33.395Z,92.90
2019-02-07T06:18:42.397Z,92.30
2019-02-07T06:21:26.635Z,91.90
2019-02-07T06:24:08.660Z,92.00
2019-02-07T06:26:54.064Z,92.00
2019-02-07T06:29:43.612Z,91.30
2019-02-07T06:32:36.813Z,91.60
2019-02-07T06:35:34.613Z,91.70
2019-02-07T06:38:12.129Z,91.60
2019-02-07T06:41:01.718Z,92.60
2019-02-07T06:43:52.151Z,92.90
2019-02-07T06:46:42.349Z,93.20
2019-02-07T06:49:27.247Z,93.80
2019-02-07T06:52:11.816Z,94.10
2019-02-07T06:55:11.427Z,93.90
2019-02-07T06:58:00.015Z,94.00
2019-02-07T07:00:48.915Z,94.60
2019-02-07T07:03:50.963Z,94.30
2019-02-07T07:06:49.286Z,94.40
2019-02-07T07:09:37.973Z,94.40
2019-02-07T07:12:28.163Z,93.70
2019-02-07T07:15:15.324Z,93.50
2019-02-07T07:17:55.928Z,94.30
2019-02-07T07:20:37.763Z,94.30
2019-02-07T07:23:26.425Z,94.70
2019-02-07T07:26:24.749Z,95.40
2019-02-07T07:29:16.484Z,95.90
2019-02-07T07:32:05.585Z,95.90
2019-02-07T07:34:55.532Z,96.30
2019-02-07T07:37:38.992Z,96.30
2019-02-07T07:40:30.753Z,97.20
2019-02-07T07:43:10.346Z,97.90
2019-02-07T07:46:08.969Z,98.00
2019-02-07T07:49:05.515Z,98.00
2019-02-07T07:52:13.896Z,97.70
2019-02-07T07:55:02.182Z,97.90
2019-02-07T07:58:00.704Z,97.90
2019-02-07T08:00:49.334Z,98.00
2019-02-07T08:03:44.372Z,98.50
2019-02-07T08:06:43.660Z,98.40
2019-02-07T08:09:32.412Z,98.50
2019-02-07T08:12:25.874Z,98.40
2019-02-07T08:15:27.426Z,98.20
2019-02-07T08:18:17.621Z,97.70
2019-02-07T08:21:17.322Z,97.90
2019-02-07T08:24:11.731Z,97.70
2019-02-07T08:26:53.241Z,97.20
2019-02-07T08:29:47.856Z,97.20
2019-02-07T08:32:39.811Z,96.10
2019-02-07T08:35:28.960Z,96.90
2019-02-07T08:38:31.945Z,96.70
2019-02-07T08:41:20.530Z,96.30
2019-02-07T08:44:20.090Z,96.40
2019-02-07T08:47:13.689Z,96.40
2019-02-07T08:50:04.385Z,96.10
2019-02-07T08:52:57.853Z,96.40
2019-02-07T08:55:43.252Z,96.50
2019-02-07T08:58:27.826Z,96.90
2019-02-07T09:01:13.621Z,97.80
2019-02-07T09:04:02.013Z,98.80
2019-02-07T09:06:56.141Z,99.80
2019-02-07T09:10:01.752Z,99.40
2019-02-07T09:13:01.864Z,99.20
2019-02-07T09:15:54.486Z,97.30
2019-02-07T09:18:45.303Z,97.20
2019-02-07T09:21:39.034Z,97.40
2019-02-07T09:24:27.544Z,97.50
2019-02-07T09:27:29.860Z,97.20
2019-02-07T09:30:22.713Z,96.10
2019-02-07T09:33:11.868Z,96.10
2019-02-07T09:36:05.451Z,96.10
2019-02-07T09:38:52.768Z,96.30
2019-02-07T09:41:38.192Z,96.40
2019-02-07T09:44:30.919Z,97.90
2019-02-07T09:47:22.281Z,98.60
2019-02-07T09:50:11.546Z,99.30
2019-02-07T09:53:00.726Z,99.90
2019-02-07T09:55:49.856Z,99.90
2019-02-07T09:58:39.036Z,99.90
2019-02-07T10:01:35.429Z,99.90
2019-02-07T10:04:29.578Z,99.90
2019-02-07T10:07:13.206Z,99.90
2019-02-07T10:10:06.639Z,99.90
2019-02-07T10:12:55.990Z,99.90
2019-02-07T10:15:43.981Z,99.90
2019-02-07T10:18:38.014Z,99.90
2019-02-07T10:21:34.579Z,99.90
2019-02-07T10:24:23.793Z,99.90
2019-02-07T10:27:05.668Z,99.90
2019-02-07T10:29:42.714Z,99.90
2019-02-07T10:32:31.591Z,99.90
2019-02-07T10:35:22.798Z,99.90
2019-02-07T10:38:10.729Z,99.90
2019-02-07T10:40:59.102Z,99.90
2019-02-07T10:43:41.358Z,99.90
2019-02-07T10:46:33.641Z,99.90
2019-02-07T10:49:34.341Z,99.90
2019-02-07T10:52:23.389Z,99.90
2019-02-07T10:55:25.703Z,99.90
2019-02-07T10:58:25.521Z,99.90
2019-02-07T11:01:10.302Z,99.90
2019-02-07T11:04:02.117Z,99.90
2019-02-07T11:06:48.728Z,99.90
2019-02-07T11:09:45.092Z,99.90
2019-02-07T11:12:40.375Z,99.90
2019-02-07T11:15:25.955Z,99.90
2019-02-07T11:18:22.258Z,99.90
2019-02-07T11:21:11.527Z,99.90
2019-02-07T11:24:08.781Z,99.90
2019-02-07T11:27:05.222Z,99.90
2019-02-07T11:29:55.776Z,99.90
2019-02-07T11:32:37.422Z,99.90
2019-02-07T11:35:23.751Z,99.90
2019-02-07T11:38:07.422Z,99.90
2019-02-07T11:41:13.484Z,99.90
2019-02-07T11:44:22.322Z,99.90
2019-02-07T11:47:06.467Z,99.90
2019-02-07T11:49:49.411Z,99.90
2019-02-07T11:52:54.356Z,99.90
2019-02-07T11:55:35.597Z,99.90
2019-02-07T11:58:33.395Z,99.90
2019-02-07T12:01:28.671Z,99.90
2019-02-07T12:04:16.330Z,99.90
2019-02-07T12:07:01.093Z,99.90
2019-02-07T12:09:42.339Z,99.90
2019-02-07T12:12:50.981Z,99.90
2019-02-07T12:15:50.310Z,99.90
2019-02-07T12:18:40.478Z,99.90
2019-02-07T12:21:29.879Z,99.90
2019-02-07T12:24:18.510Z,99.90
2019-02-07T12:27:11.822Z,99.90
2019-02-07T12:30:20.049Z,99.90
2019-02-07T12:33:17.861Z,99.90
2019-02-07T12:36:08.124Z,99.90
2019-02-07T12:39:01.518Z,99.90
2019-02-07T12:41:52.223Z,99.90
2019-02-07T12:44:58.642Z,99.90
2019-02-07T12:47:54.741Z,99.90
2019-02-07T12:50:46.752Z,99.90
2019-02-07T12:53:28.931Z,99.90
2019-02-07T12:56:37.831Z,99.90
2019-02-07T12:59:30.685Z,99.90
2019-02-07T13:02:19.897Z,99.90
2019-02-07T13:05:00.649Z,99.90
2019-02-07T13:07:55.862Z,99.90
2019-02-07T13:10:49.535Z,99.90
2019-02-07T13:13:39.799Z,99.90
2019-02-07T13:16:28.942Z,99.90
2019-02-07T13:19:22.081Z,99.90
2019-02-07T13:22:21.624Z,99.90
2019-02-07T13:25:17.267Z,99.90
2019-02-07T13:28:16.964Z,99.90
2019-02-07T13:31:06.843Z,99.90
2019-02-07T13:34:03.721Z,99.90
2019-02-07T13:36:56.722Z,99.90
2019-02-07T13:39:47.350Z,99.90
2019-02-07T13:42:36.535Z,99.90
2019-02-07T13:45:31.496Z,99.90
2019-02-07T13:48:13.130Z,99.90
2019-02-07T13:51:02.474Z,99.90
2019-02-07T13:53:51.540Z,99.90
2019-02-07T13:56:40.682Z,99.90
2019-02-07T13:59:40.204Z,99.90
2019-02-07T14:02:24.378Z,99.90
2019-02-07T14:05:04.266Z,99.90
2019-02-07T14:08:09.751Z,99.90
2019-02-07T14:10:56.313Z,99.90
2019-02-07T14:13:49.698Z,99.90
2019-02-07T14:16:40.481Z,99.90
2019-02-07T14:19:33.664Z,99.90
2019-02-07T14:22:30.529Z,99.90
2019-02-07T14:25:39.307Z,99.90
2019-02-07T14:28:35.725Z,99.90
2019-02-07T14:31:28.830Z,99.90
2019-02-07T14:34:14.310Z,99.90
2019-02-07T14:37:14.010Z,99.90
2019-02-07T14:40:03.793Z,99.90
2019-02-07T14:42:56.855Z,99.90
2019-02-07T14:45:40.282Z,99.90
2019-02-07T14:48:23.428Z,99.90
2019-02-07T14:50:55.984Z,99.90
2019-02-07T14:53:27.534Z,99.90
2019-02-07T14:55:59.194Z,99.90
2019-02-07T14:58:31.575Z,99.90
2019-02-07T15:01:03.659Z,99.90
2019-02-07T15:03:36.423Z,99.90
2019-02-07T15:06:08.091Z,99.90
2019-02-07T15:08:39.934Z,99.90
2019-02-07T15:11:11.905Z,99.90
2019-02-07T15:13:43.539Z,99.90
2019-02-07T15:16:15.495Z,99.90
2019-02-07T15:18:47.307Z,99.90
2019-02-07T15:21:19.361Z,99.90
2019-02-07T15:23:51.414Z,99.90
2019-02-07T15:26:23.007Z,99.90
2019-02-07T15:28:54.668Z,99.90
2019-02-07T15:31:26.607Z,99.90
2019-02-07T15:33:57.701Z,99.90
2019-02-07T15:36:29.458Z,99.90
2019-02-07T15:39:01.425Z,99.90
2019-02-07T15:41:33.817Z,99.90
2019-02-07T15:44:06.103Z,99.90
2019-02-07T15:46:37.813Z,99.90
2019-02-07T15:49:09.688Z,99.90
2019-02-07T15:51:42.011Z,99.90
2019-02-07T15:54:13.658Z,99.90
2019-02-07T15:56:45.575Z,99.90
2019-02-07T15:59:30.936Z,99.90
2019-02-07T16:02:30.639Z,99.90
2019-02-07T16:05:02.681Z,99.90
2019-02-07T16:07:33.967Z,99.90
2019-02-07T16:10:09.095Z,99.90
2019-02-07T16:12:40.766Z,99.90
2019-02-07T16:15:13.224Z,99.90
2019-02-07T16:17:44.676Z,99.90
2019-02-07T16:20:17.966Z,99.90
2019-02-07T16:22:50.010Z,99.90
2019-02-07T16:25:21.548Z,99.90
2019-02-07T16:27:53.131Z,99.90
2019-02-07T16:30:24.655Z,99.90
2019-02-07T16:32:56.336Z,99.90
2019-02-07T16:35:28.388Z,99.90
2019-02-07T16:37:59.852Z,99.90
2019-02-07T16:40:31.538Z,99.90
2019-02-07T16:43:03.572Z,99.90
2019-02-07T16:45:35.703Z,99.90
2019-02-07T16:48:07.601Z,99.90
2019-02-07T16:50:39.328Z,99.90
2019-02-07T16:53:10.591Z,99.90
2019-02-07T16:55:42.232Z,99.90
2019-02-07T16:58:13.994Z,99.90
2019-02-07T17:00:45.883Z,99.90
2019-02-07T17:03:17.298Z,99.90
2019-02-07T17:05:49.189Z,99.90
2019-02-07T17:08:20.668Z,99.90
2019-02-07T17:10:52.662Z,99.90
2019-02-07T17:13:25.073Z,99.90
2019-02-07T17:15:56.639Z,99.90
2019-02-07T17:18:27.674Z,99.90
2019-02-07T17:20:59.071Z,99.90
2019-02-07T17:23:31.396Z,99.90
2019-02-07T17:26:03.170Z,99.90
2019-02-07T17:28:34.325Z,99.90
2019-02-07T17:31:05.987Z,99.90
2019-02-07T17:33:38.109Z,99.90
2019-02-07T17:36:09.551Z,99.90
2019-02-07T17:38:41.515Z,99.90
2019-02-07T17:41:13.807Z,99.90
2019-02-07T17:43:45.442Z,99.90
2019-02-07T17:46:17.204Z,99.90
2019-02-07T17:48:48.910Z,99.90
2019-02-07T17:51:23.521Z,99.90
2019-02-07T17:53:54.611Z,99.90
2019-02-07T17:56:26.244Z,99.90
2019-02-07T17:58:57.604Z,99.90
2019-02-07T18:01:29.274Z,99.90
2019-02-07T18:04:00.683Z,99.90
2019-02-07T18:06:32.033Z,99.90
2019-02-07T18:09:04.114Z,99.90
2019-02-07T18:11:36.981Z,99.90
2019-02-07T18:14:08.479Z,99.90
2019-02-07T18:16:40.439Z,99.90
2019-02-07T18:19:11.870Z,99.90
2019-02-07T18:21:43.522Z,99.90
2019-02-07T18:24:14.863Z,99.90
2019-02-07T18:26:46.219Z,99.90
2019-02-07T18:29:18.452Z,99.90
2019-02-07T18:31:50.143Z,99.90
2019-02-07T18:34:22.219Z,99.90
2019-02-07T18:36:53.354Z,99.90
2019-02-07T18:39:24.707Z,99.90
2019-02-07T18:41:56.774Z,99.90
2019-02-07T18:44:28.919Z,99.90
2019-02-07T18:47:00.560Z,99.90
2019-02-07T18:49:31.807Z,99.90
2019-02-07T18:52:03.467Z,99.90
2019-02-07T18:54:35.845Z,99.90
2019-02-07T18:57:07.751Z,99.90
2019-02-07T18:59:38.779Z,99.90
2019-02-07T19:02:10.625Z,99.90
2019-02-07T19:04:42.335Z,99.90
2019-02-07T19:07:14.034Z,99.90
2019-02-07T19:09:46.222Z,99.90
2019-02-07T19:12:18.045Z,99.90
2019-02-07T19:14:50.167Z,99.90
2019-02-07T19:17:21.884Z,99.90
2019-02-07T19:19:53.866Z,99.90
2019-02-07T19:22:26.115Z,99.90
2019-02-07T19:24:57.314Z,99.90
2019-02-07T19:27:28.727Z,99.90
2019-02-07T19:30:01.257Z,99.90
2019-02-07T19:32:32.599Z,99.90
2019-02-07T19:35:04.183Z,99.90
2019-02-07T19:37:35.614Z,99.90
2019-02-07T19:40:09.698Z,99.90
2019-02-07T19:42:41.337Z,99.90
2019-02-07T19:45:14.029Z,99.90
2019-02-07T19:47:46.352Z,99.90
2019-02-07T19:50:22.262Z,99.90
2019-02-07T19:52:54.167Z,99.90
2019-02-07T19:55:27.840Z,99.90
2019-02-07T19:58:01.035Z,99.90
2019-02-07T20:00:33.633Z,99.90
2019-02-07T20:03:05.491Z,99.90
2019-02-07T20:05:37.149Z,99.90
2019-02-07T20:08:09.012Z,99.90
2019-02-07T20:10:41.137Z,99.90
2019-02-07T20:13:12.611Z,99.90
2019-02-07T20:15:44.928Z,99.90
2019-02-07T20:18:16.240Z,99.90
2019-02-07T20:20:48.159Z,99.90
2019-02-07T20:23:20.945Z,99.90
2019-02-07T20:25:52.280Z,99.90
2019-02-07T20:28:24.167Z,99.90
2019-02-07T20:30:55.897Z,99.90
2019-02-07T20:33:27.808Z,99.90
2019-02-07T20:35:59.961Z,99.90
2019-02-07T20:38:31.263Z,99.90
2019-02-07T20:41:02.571Z,99.90
2019-02-07T20:43:34.474Z,99.90
2019-02-07T20:46:07.811Z,99.90
2019-02-07T20:48:39.885Z,99.90
2019-02-07T20:51:11.559Z,99.90
2019-02-07T20:53:43.386Z,99.90
2019-02-07T20:56:14.784Z,99.90
2019-02-07T20:58:46.176Z,99.90
2019-02-07T21:01:17.732Z,99.90
2019-02-07T21:03:49.600Z,99.90
2019-02-07T21:06:21.262Z,99.90
2019-02-07T21:08:53.223Z,99.90
2019-02-07T21:11:24.863Z,99.90
2019-02-07T21:13:56.735Z,99.90
2019-02-07T21:16:28.582Z,99.90
2019-02-07T21:19:01.319Z,99.90
2019-02-07T21:21:32.342Z,99.90
2019-02-07T21:24:03.755Z,99.90
2019-02-07T21:26:35.408Z,99.90
2019-02-07T21:29:06.966Z,99.90
2019-02-07T21:31:39.596Z,99.90
2019-02-07T21:34:11.222Z,99.90
2019-02-07T21:36:43.152Z,99.90
2019-02-07T21:39:14.589Z,99.90
2019-02-07T21:41:45.882Z,99.90
2019-02-07T21:44:17.842Z,99.90
2019-02-07T21:46:49.729Z,99.90
2019-02-07T21:49:21.574Z,99.90
2019-02-07T21:51:53.608Z,99.90
2019-02-07T21:54:25.487Z,99.90
2019-02-07T21:56:56.798Z,99.90
2019-02-07T21:59:29.486Z,99.90
2019-02-07T22:02:01.475Z,99.90
2019-02-07T22:04:33.428Z,99.90
2019-02-07T22:07:04.911Z,99.90
2019-02-07T22:09:36.844Z,99.90
2019-02-07T22:12:09.166Z,99.90
2019-02-07T22:14:41.073Z,99.90
2019-02-07T22:17:13.905Z,99.90
2019-02-07T22:19:45.475Z,99.90
2019-02-07T22:22:17.366Z,99.90
2019-02-07T22:24:49.851Z,99.90
2019-02-07T22:27:22.080Z,99.90
2019-02-07T22:29:53.444Z,99.90
2019-02-07T22:32:24.786Z,99.90
2019-02-07T22:34:56.553Z,99.90
2019-02-07T22:37:28.009Z,99.90
2019-02-07T22:39:59.964Z,99.90
2019-02-07T22:42:31.405Z,99.90
2019-02-07T22:45:03.630Z,99.90
2019-02-07T22:47:35.480Z,99.90
2019-02-07T22:50:15.035Z,99.90
2019-02-07T22:52:46.378Z,99.90
2019-02-07T22:55:19.862Z,99.90
2019-02-07T22:57:51.703Z,99.90
2019-02-07T23:01:14.273Z,99.90
2019-02-07T23:03:51.760Z,99.90
2019-02-07T23:06:23.655Z,99.90
2019-02-07T23:08:55.090Z,99.90
2019-02-07T23:11:26.710Z,99.90
2019-02-07T23:13:57.718Z,99.90
2019-02-07T23:16:30.317Z,99.90
2019-02-07T23:19:02.683Z,99.90
2019-02-07T23:21:34.861Z,99.90
2019-02-07T23:24:07.622Z,99.90
2019-02-07T23:26:39.478Z,99.90
2019-02-07T23:29:12.054Z,99.90
2019-02-07T23:31:43.530Z,99.90
2019-02-07T23:34:15.391Z,99.90
2019-02-07T23:36:47.264Z,99.90
2019-02-07T23:39:18.910Z,99.90
2019-02-07T23:41:51.248Z,99.90
2019-02-07T23:44:22.253Z,99.90
2019-02-07T23:46:53.521Z,99.90
2019-02-07T23:49:25.356Z,99.90
2019-02-07T23:51:56.833Z,99.90
2019-02-07T23:54:28.391Z,99.90
2019-02-07T23:57:00.135Z,99.90
2019-02-07T23:59:31.717Z,99.90
